Map

Track Data

SID SEASON NUMBER BASIN SUBBASIN NAME ISO_TIME NATURE LAT LON WMO_WIND WMO_PRES WMO_AGENCY TRACK_TYPE DIST2LAND LANDFALL IFLAG USA_AGENCY USA_ATCF_ID USA_LAT USA_LON USA_RECORD USA_STATUS USA_WIND USA_PRES USA_SSHS USA_R34_NE USA_R34_SE USA_R34_SW USA_R34_NW USA_R50_NE USA_R50_SE USA_R50_SW USA_R50_NW USA_R64_NE USA_R64_SE USA_R64_SW USA_R64_NW USA_POCI USA_ROCI USA_RMW USA_EYE TOKYO_LAT TOKYO_LON TOKYO_GRADE TOKYO_WIND TOKYO_PRES TOKYO_R50_DIR TOKYO_R50_LONG TOKYO_R50_SHORT TOKYO_R30_DIR TOKYO_R30_LONG TOKYO_R30_SHORT TOKYO_LAND CMA_LAT CMA_LON CMA_CAT CMA_WIND CMA_PRES HKO_LAT HKO_LON HKO_CAT HKO_WIND HKO_PRES NEWDELHI_LAT NEWDELHI_LON NEWDELHI_GRADE NEWDELHI_WIND NEWDELHI_PRES NEWDELHI_CI NEWDELHI_DP NEWDELHI_POCI REUNION_LAT REUNION_LON REUNION_TYPE REUNION_WIND REUNION_PRES REUNION_TNUM REUNION_CI REUNION_RMW REUNION_R34_NE REUNION_R34_SE REUNION_R34_SW REUNION_R34_NW REUNION_R50_NE REUNION_R50_SE REUNION_R50_SW REUNION_R50_NW REUNION_R64_NE REUNION_R64_SE REUNION_R64_SW REUNION_R64_NW BOM_LAT BOM_LON BOM_TYPE BOM_WIND BOM_PRES BOM_TNUM BOM_CI BOM_RMW BOM_R34_NE BOM_R34_SE BOM_R34_SW BOM_R34_NW BOM_R50_NE BOM_R50_SE BOM_R50_SW BOM_R50_NW BOM_R64_NE BOM_R64_SE BOM_R64_SW BOM_R64_NW BOM_ROCI BOM_POCI BOM_EYE BOM_POS_METHOD BOM_PRES_METHOD NADI_LAT NADI_LON NADI_CAT NADI_WIND NADI_PRES WELLINGTON_LAT WELLINGTON_LON WELLINGTON_WIND WELLINGTON_PRES DS824_LAT DS824_LON DS824_STAGE DS824_WIND DS824_PRES TD9636_LAT TD9636_LON TD9636_STAGE TD9636_WIND TD9636_PRES TD9635_LAT TD9635_LON TD9635_WIND TD9635_PRES TD9635_ROCI NEUMANN_LAT NEUMANN_LON NEUMANN_CLASS NEUMANN_WIND NEUMANN_PRES MLC_LAT MLC_LON MLC_CLASS MLC_WIND MLC_PRES USA_GUST BOM_GUST BOM_GUST_PER REUNION_GUST REUNION_GUST_PER USA_SEAHGT USA_SEARAD_NE USA_SEARAD_SE USA_SEARAD_SW USA_SEARAD_NW STORM_SPEED STORM_DIR
1935183S17152 1936 32 SP EA NOT_NAMED 1935-07-01 12:00:00 NR -17.3000 151.700 main 453 445 __________O___ -1 -17.3000 151.700 7 1 215
1935183S17152 1936 32 SP EA NOT_NAMED 1935-07-01 15:00:00 NR -17.3561 151.659 main 445 438 __________P___ -1 -17.3561 151.659 7 2 210
1935183S17152 1936 32 SP EA NOT_NAMED 1935-07-01 18:00:00 NR -17.4498 151.604 main 438 414 __________P___ -1 -17.4498 151.604 7 3 207
1935183S17152 1936 32 SP EA NOT_NAMED 1935-07-01 21:00:00 NR -17.6186 151.522 main 414 383 __________P___ -1 -17.6186 151.522 7 5 203
1935183S17152 1936 32 SP EA NOT_NAMED 1935-07-02 00:00:00 NR -17.9000 151.400 main 383 336 __________O___ -1 -17.9000 151.400 7 8 202
1935183S17152 1936 32 SP EA NOT_NAMED 1935-07-02 03:00:00 NR -18.3174 151.232 main 336 293 __________P___ -1 -18.3174 151.232 7 10 200
1935183S17152 1936 32 SP EA NOT_NAMED 1935-07-02 06:00:00 NR -18.8378 151.049 main 285 241 __________P___ -1 -18.8378 151.049 7 12 196
1935183S17152 1936 32 SP EA NOT_NAMED 1935-07-02 09:00:00 NR -19.4143 150.892 main 241 205 __________P___ -1 -19.4143 150.892 7 12 191
1935183S17152 1936 32 SP EA NOT_NAMED 1935-07-02 12:00:00 NR -20.0000 150.800 main 205 179 __________O___ -1 -20.0000 150.800 7 12 185
1935183S17152 1936 32 SP EA NOT_NAMED 1935-07-02 15:00:00 NR -20.5652 150.787 main 175 145 __________P___ -1 -20.5652 150.787 7 11 178
1935183S17152 1936 32 SP EA NOT_NAMED 1935-07-02 18:00:00 NR -21.1244 150.850 main 145 94 __________P___ -1 -21.1244 150.850 7 11 170
1935183S17152 1936 32 SP EA NOT_NAMED 1935-07-02 21:00:00 NR -21.6464 150.987 main 94 60 __________P___ -1 -21.6464 150.987 7 10 162
1935183S17152 1936 32 SP EA NOT_NAMED 1935-07-03 00:00:00 NR -22.1000 151.200 main 60 53 __________O___ -1 -22.1000 151.200 7 10 151
1935183S17152 1936 32 SP EA NOT_NAMED 1935-07-03 03:00:00 NR -22.4756 151.482 main 71 71 __________P___ -1 -22.4756 151.482 7 9 139
1935183S17152 1936 32 SP EA NOT_NAMED 1935-07-03 06:00:00 NR -22.7779 151.832 main 102 102 __________P___ -1 -22.7779 151.832 7 9 129
1935183S17152 1936 32 SP EA NOT_NAMED 1935-07-03 09:00:00 NR -23.0162 152.216 main 129 122 __________P___ -1 -23.0162 152.216 7 8 121
1935183S17152 1936 32 SP EA NOT_NAMED 1935-07-03 12:00:00 NR -23.2000 152.600 main 129 127 __________O___ -1 -23.2000 152.600 7 6 121
1935183S17152 1936 32 SP EA NOT_NAMED 1935-07-03 15:00:00 NR -23.3427 152.804 main 135 127 __________P___ -1 -23.3427 152.804 7 5 122
1935183S17152 1936 32 SP EA NOT_NAMED 1935-07-03 18:00:00 NR -23.4391 153.020 main 143 143 __________P___ -1 -23.4391 153.020 7 5 109
1935183S17152 1936 32 SP EA NOT_NAMED 1935-07-03 21:00:00 NR -23.5161 153.351 main 145 137 __________P___ -1 -23.5161 153.351 7 8 101
1935183S17152 1936 32 SP EA NOT_NAMED 1935-07-04 00:00:00 NR -23.6000 153.900 main 147 147 __________O___ -1 -23.6000 153.900 7 13 99
1935183S17152 1936 32 SP EA NOT_NAMED 1935-07-04 03:00:00 NR -23.7320 154.770 main 195 195 __________P___ -1 -23.7320 154.770 7 18 98
1935183S17152 1936 32 SP EA NOT_NAMED 1935-07-04 06:00:00 NR -23.8674 155.865 main 281 281 __________P___ -1 -23.8674 155.865 7 21 97
1935183S17152 1936 32 SP EA NOT_NAMED 1935-07-04 09:00:00 NR -23.9936 157.102 main 390 390 __________P___ -1 -23.9936 157.102 7 23 96
1935183S17152 1936 32 SP EA NOT_NAMED 1935-07-04 12:00:00 NR -24.1000 158.400 main 515 515 __________O___ -1 -24.1000 158.400 7 24 95
1935183S17152 1936 32 SP EA NOT_NAMED 1935-07-04 15:00:00 NR -24.1805 159.692 main 614 515 __________P___ -1 -24.1805 159.692 7 23 93
1935183S17152 1936 32 SP MM NOT_NAMED 1935-07-04 18:00:00 NR -24.2377 160.969 main 507 426 __________P___ -1 -24.2377 160.969 7 23 92
1935183S17152 1936 32 SP MM NOT_NAMED 1935-07-04 21:00:00 NR -24.2761 162.237 main 426 358 __________P___ -1 -24.2761 162.237 7 23 92
1935183S17152 1936 32 SP MM NOT_NAMED 1935-07-05 00:00:00 NR -24.3000 163.500 main 353 __________O___ -1 -24.3000 163.500 7 23 91

Digital Typhoon Data and Search

About IBTrACS Database

This database is a web-friendly format of International Best Track Archive for Climate Stewardship (IBTrACS), a global best track data archive curated by NOAA dating back to 1842.

Updated: 2021-11-26